sensor_id;sensor_type;location;lat;lon;timestamp;pressure;altitude;pressure_sealevel;temperature;humidity
54994;BME280;40891;47.242;8.648;2023-07-13T00:01:42;96421.31;;;18.41;100.00
54994;BME280;40891;47.242;8.648;2023-07-13T00:04:08;96401.34;;;18.39;100.00
54994;BME280;40891;47.242;8.648;2023-07-13T00:06:33;96396.75;;;18.42;100.00
54994;BME280;40891;47.242;8.648;2023-07-13T00:09:00;96395.94;;;18.30;100.00
54994;BME280;40891;47.242;8.648;2023-07-13T00:11:26;96397.19;;;18.29;100.00
54994;BME280;40891;47.242;8.648;2023-07-13T00:13:52;96402.81;;;18.23;100.00
54994;BME280;40891;47.242;8.648;2023-07-13T00:16:17;96396.41;;;18.23;100.00
54994;BME280;40891;47.242;8.648;2023-07-13T00:18:44;96377.22;;;18.21;100.00
54994;BME280;40891;47.242;8.648;2023-07-13T00:21:09;96381.81;;;18.24;100.00
54994;BME280;40891;47.242;8.648;2023-07-13T00:23:36;96372.34;;;18.22;100.00
54994;BME280;40891;47.242;8.648;2023-07-13T00:26:03;96386.91;;;18.20;100.00
54994;BME280;40891;47.242;8.648;2023-07-13T00:28:28;96381.28;;;18.20;100.00
54994;BME280;40891;47.242;8.648;2023-07-13T00:30:54;96362.31;;;18.15;100.00
54994;BME280;40891;47.242;8.648;2023-07-13T00:33:19;96362.53;;;18.06;100.00
54994;BME280;40891;47.242;8.648;2023-07-13T00:35:45;96363.34;;;18.12;100.00
54994;BME280;40891;47.242;8.648;2023-07-13T00:38:10;96373.56;;;18.10;100.00
54994;BME280;40891;47.242;8.648;2023-07-13T00:40:36;96371.03;;;18.12;100.00
54994;BME280;40891;47.242;8.648;2023-07-13T00:43:01;96370.75;;;18.10;100.00
54994;BME280;40891;47.242;8.648;2023-07-13T00:47:52;96367.97;;;18.15;100.00
54994;BME280;40891;47.242;8.648;2023-07-13T00:50:18;96377.03;;;18.36;100.00
54994;BME280;40891;47.242;8.648;2023-07-13T00:52:46;96376.97;;;18.25;100.00
54994;BME280;40891;47.242;8.648;2023-07-13T00:55:14;96369.72;;;18.13;100.00
54994;BME280;40891;47.242;8.648;2023-07-13T00:57:40;96376.41;;;18.15;100.00
54994;BME280;40891;47.242;8.648;2023-07-13T01:00:07;96380.28;;;18.23;100.00
54994;BME280;40891;47.242;8.648;2023-07-13T01:02:35;96364.19;;;18.29;100.00
54994;BME280;40891;47.242;8.648;2023-07-13T01:05:09;96361.38;;;18.29;100.00
54994;BME280;40891;47.242;8.648;2023-07-13T01:07:35;96347.34;;;18.35;100.00
54994;BME280;40891;47.242;8.648;2023-07-13T01:10:02;96332.00;;;18.36;100.00
54994;BME280;40891;47.242;8.648;2023-07-13T01:12:27;96346.84;;;18.42;100.00
54994;BME280;40891;47.242;8.648;2023-07-13T01:15:00;96354.06;;;18.49;100.00
54994;BME280;40891;47.242;8.648;2023-07-13T01:17:27;96353.03;;;18.46;100.00
54994;BME280;40891;47.242;8.648;2023-07-13T01:19:53;96352.03;;;18.49;100.00
54994;BME280;40891;47.242;8.648;2023-07-13T01:22:19;96358.91;;;18.43;100.00
54994;BME280;40891;47.242;8.648;2023-07-13T01:24:50;96367.38;;;18.48;100.00
54994;BME280;40891;47.242;8.648;2023-07-13T01:27:19;96363.56;;;18.51;100.00
54994;BME280;40891;47.242;8.648;2023-07-13T01:29:45;96362.75;;;18.45;100.00
54994;BME280;40891;47.242;8.648;2023-07-13T01:32:16;96366.56;;;18.42;100.00
54994;BME280;40891;47.242;8.648;2023-07-13T01:34:41;96374.22;;;18.36;100.00
54994;BME280;40891;47.242;8.648;2023-07-13T01:37:08;96374.75;;;18.40;100.00
54994;BME280;40891;47.242;8.648;2023-07-13T01:39:34;96371.84;;;18.29;100.00
54994;BME280;40891;47.242;8.648;2023-07-13T01:42:00;96380.28;;;18.23;100.00
54994;BME280;40891;47.242;8.648;2023-07-13T01:44:25;96386.91;;;18.20;100.00
54994;BME280;40891;47.242;8.648;2023-07-13T01:46:51;96393.28;;;18.15;100.00
54994;BME280;40891;47.242;8.648;2023-07-13T01:49:16;96398.19;;;18.20;100.00
54994;BME280;40891;47.242;8.648;2023-07-13T01:51:41;96405.59;;;18.18;100.00
54994;BME280;40891;47.242;8.648;2023-07-13T01:54:07;96395.31;;;18.15;100.00
54994;BME280;40891;47.242;8.648;2023-07-13T01:56:32;96402.97;;;18.09;100.00
54994;BME280;40891;47.242;8.648;2023-07-13T01:58:57;96412.41;;;18.00;100.00
54994;BME280;40891;47.242;8.648;2023-07-13T02:01:22;96404.94;;;17.97;100.00
54994;BME280;40891;47.242;8.648;2023-07-13T02:03:48;96408.66;;;18.14;100.00
54994;BME280;40891;47.242;8.648;2023-07-13T02:06:13;96407.59;;;18.12;100.00
54994;BME280;40891;47.242;8.648;2023-07-13T02:08:40;96410.63;;;18.03;100.00
54994;BME280;40891;47.242;8.648;2023-07-13T02:11:05;96411.38;;;18.03;100.00
54994;BME280;40891;47.242;8.648;2023-07-13T02:13:31;96413.97;;;18.07;100.00
54994;BME280;40891;47.242;8.648;2023-07-13T02:15:56;96415.22;;;18.00;100.00
54994;BME280;40891;47.242;8.648;2023-07-13T02:18:21;96414.16;;;17.98;100.00
54994;BME280;40891;47.242;8.648;2023-07-13T02:20:47;96409.53;;;17.95;100.00
54994;BME280;40891;47.242;8.648;2023-07-13T02:23:12;96406.00;;;18.00;100.00
54994;BME280;40891;47.242;8.648;2023-07-13T02:25:38;96398.03;;;17.98;100.00
54994;BME280;40891;47.242;8.648;2023-07-13T02:28:03;96394.22;;;17.96;100.00
54994;BME280;40891;47.242;8.648;2023-07-13T02:30:30;96386.28;;;18.00;100.00
54994;BME280;40891;47.242;8.648;2023-07-13T02:32:56;96388.34;;;17.99;100.00
54994;BME280;40891;47.242;8.648;2023-07-13T02:35:22;96378.63;;;18.00;100.00
54994;BME280;40891;47.242;8.648;2023-07-13T02:37:48;96368.44;;;18.08;100.00
54994;BME280;40891;47.242;8.648;2023-07-13T02:40:14;96357.22;;;18.14;100.00
54994;BME280;40891;47.242;8.648;2023-07-13T02:42:39;96367.81;;;18.35;100.00
54994;BME280;40891;47.242;8.648;2023-07-13T02:45:06;96373.94;;;18.34;100.00
54994;BME280;40891;47.242;8.648;2023-07-13T02:47:32;96373.38;;;18.19;100.00
54994;BME280;40891;47.242;8.648;2023-07-13T02:49:58;96367.66;;;18.08;100.00
54994;BME280;40891;47.242;8.648;2023-07-13T02:52:23;96375.34;;;18.13;100.00
54994;BME280;40891;47.242;8.648;2023-07-13T02:54:48;96370.28;;;18.17;100.00
54994;BME280;40891;47.242;8.648;2023-07-13T02:57:14;96375.63;;;18.15;100.00
54994;BME280;40891;47.242;8.648;2023-07-13T02:59:39;96372.59;;;18.18;100.00
54994;BME280;40891;47.242;8.648;2023-07-13T03:02:04;96372.88;;;18.26;100.00
54994;BME280;40891;47.242;8.648;2023-07-13T03:04:30;96376.19;;;18.24;100.00
54994;BME280;40891;47.242;8.648;2023-07-13T03:06:55;96378.78;;;18.28;100.00
54994;BME280;40891;47.242;8.648;2023-07-13T03:09:23;96385.19;;;18.28;100.00
54994;BME280;40891;47.242;8.648;2023-07-13T03:11:49;96380.59;;;18.31;100.00
54994;BME280;40891;47.242;8.648;2023-07-13T03:14:14;96377.03;;;18.36;100.00
54994;BME280;40891;47.242;8.648;2023-07-13T03:16:39;96385.81;;;18.49;100.00
54994;BME280;40891;47.242;8.648;2023-07-13T03:19:05;96383.66;;;18.33;100.00
54994;BME280;40891;47.242;8.648;2023-07-13T03:21:30;96388.00;;;18.34;100.00
54994;BME280;40891;47.242;8.648;2023-07-13T03:23:56;96375.19;;;18.27;100.00
54994;BME280;40891;47.242;8.648;2023-07-13T03:26:21;96365.22;;;18.32;100.00
54994;BME280;40891;47.242;8.648;2023-07-13T03:28:47;96380.84;;;18.33;100.00
54994;BME280;40891;47.242;8.648;2023-07-13T03:31:19;96371.59;;;18.27;100.00
54994;BME280;40891;47.242;8.648;2023-07-13T03:33:45;96371.84;;;18.29;100.00
54994;BME280;40891;47.242;8.648;2023-07-13T03:36:19;96370.03;;;18.20;100.00
54994;BME280;40891;47.242;8.648;2023-07-13T03:38:50;96370.84;;;18.26;100.00
54994;BME280;40891;47.242;8.648;2023-07-13T03:41:16;96368.78;;;18.27;100.00
54994;BME280;40891;47.242;8.648;2023-07-13T03:43:42;96374.13;;;18.19;100.00
54994;BME280;40891;47.242;8.648;2023-07-13T03:46:08;96367.78;;;18.30;100.00
54994;BME280;40891;47.242;8.648;2023-07-13T03:48:33;96372.63;;;18.24;100.00
54994;BME280;40891;47.242;8.648;2023-07-13T03:50:58;96375.97;;;18.28;100.00
54994;BME280;40891;47.242;8.648;2023-07-13T03:53:24;96377.47;;;18.23;100.00
54994;BME280;40891;47.242;8.648;2023-07-13T03:55:49;96381.81;;;18.19;100.00
54994;BME280;40891;47.242;8.648;2023-07-13T04:00:49;96373.63;;;18.21;100.00
54994;BME280;40891;47.242;8.648;2023-07-13T04:03:15;96384.06;;;18.15;100.00
54994;BME280;40891;47.242;8.648;2023-07-13T04:05:41;96381.53;;;18.17;100.00
54994;BME280;40891;47.242;8.648;2023-07-13T04:08:06;96390.25;;;18.19;100.00
54994;BME280;40891;47.242;8.648;2023-07-13T04:10:32;96383.06;;;18.12;100.00
54994;BME280;40891;47.242;8.648;2023-07-13T04:12:57;96385.56;;;18.10;100.00
54994;BME280;40891;47.242;8.648;2023-07-13T04:15:22;96395.56;;;18.11;100.00
54994;BME280;40891;47.242;8.648;2023-07-13T04:17:48;96390.25;;;18.24;100.00
54994;BME280;40891;47.242;8.648;2023-07-13T04:20:13;96396.91;;;18.21;100.00
54994;BME280;40891;47.242;8.648;2023-07-13T04:22:38;96393.84;;;18.19;100.00
54994;BME280;40891;47.242;8.648;2023-07-13T04:25:04;96389.47;;;18.18;100.00
54994;BME280;40891;47.242;8.648;2023-07-13T04:27:30;96398.44;;;18.17;100.00
54994;BME280;40891;47.242;8.648;2023-07-13T04:29:55;96403.59;;;18.24;100.00
54994;BME280;40891;47.242;8.648;2023-07-13T04:32:21;96413.28;;;18.23;100.00
54994;BME280;40891;47.242;8.648;2023-07-13T04:34:46;96402.03;;;18.23;100.00
54994;BME280;40891;47.242;8.648;2023-07-13T04:37:11;96405.88;;;18.25;100.00
54994;BME280;40891;47.242;8.648;2023-07-13T04:39:37;96416.63;;;18.27;100.00
54994;BME280;40891;47.242;8.648;2023-07-13T04:42:03;96416.63;;;18.27;100.00
54994;BME280;40891;47.242;8.648;2023-07-13T04:44:28;96425.91;;;18.33;100.00
54994;BME280;40891;47.242;8.648;2023-07-13T04:46:53;96447.38;;;18.30;100.00
54994;BME280;40891;47.242;8.648;2023-07-13T04:49:19;96450.97;;;18.31;100.00
54994;BME280;40891;47.242;8.648;2023-07-13T04:51:44;96441.50;;;18.34;100.00
54994;BME280;40891;47.242;8.648;2023-07-13T04:54:09;96436.97;;;18.42;100.00
54994;BME280;40891;47.242;8.648;2023-07-13T04:56:34;96434.34;;;18.33;100.00
54994;BME280;40891;47.242;8.648;2023-07-13T04:59:00;96444.53;;;18.25;100.00
54994;BME280;40891;47.242;8.648;2023-07-13T05:01:25;96450.63;;;18.18;100.00
54994;BME280;40891;47.242;8.648;2023-07-13T05:03:51;96449.16;;;18.28;100.00
54994;BME280;40891;47.242;8.648;2023-07-13T05:06:17;96451.47;;;18.29;100.00
54994;BME280;40891;47.242;8.648;2023-07-13T05:08:42;96442.06;;;18.38;100.00
54994;BME280;40891;47.242;8.648;2023-07-13T05:11:08;96443.31;;;18.37;100.00
54994;BME280;40891;47.242;8.648;2023-07-13T05:13:33;96447.81;;;18.55;100.00
54994;BME280;40891;47.242;8.648;2023-07-13T05:16:00;96464.41;;;18.53;100.00
54994;BME280;40891;47.242;8.648;2023-07-13T05:18:26;96467.28;;;18.58;100.00
54994;BME280;40891;47.242;8.648;2023-07-13T05:21:03;96471.31;;;18.46;100.00
54994;BME280;40891;47.242;8.648;2023-07-13T05:23:30;96471.31;;;18.46;100.00
54994;BME280;40891;47.242;8.648;2023-07-13T05:25:56;96472.78;;;18.42;100.00
54994;BME280;40891;47.242;8.648;2023-07-13T05:28:21;96463.56;;;18.41;100.00
54994;BME280;40891;47.242;8.648;2023-07-13T05:30:48;96468.69;;;18.43;100.00
54994;BME280;40891;47.242;8.648;2023-07-13T05:33:13;96452.41;;;18.52;100.00
54994;BME280;40891;47.242;8.648;2023-07-13T05:35:39;96464.84;;;18.40;100.00
54994;BME280;40891;47.242;8.648;2023-07-13T05:38:04;96468.91;;;18.39;100.00
54994;BME280;40891;47.242;8.648;2023-07-13T05:40:29;96465.84;;;18.37;100.00
54994;BME280;40891;47.242;8.648;2023-07-13T05:42:55;96472.25;;;18.38;100.00
54994;BME280;40891;47.242;8.648;2023-07-13T05:45:20;96465.59;;;18.35;100.00
54994;BME280;40891;47.242;8.648;2023-07-13T05:47:45;96456.34;;;18.34;100.00
54994;BME280;40891;47.242;8.648;2023-07-13T05:50:10;96458.41;;;18.34;100.00
54994;BME280;40891;47.242;8.648;2023-07-13T05:52:36;96490.03;;;18.18;100.00
54994;BME280;40891;47.242;8.648;2023-07-13T05:55:02;96502.28;;;18.15;100.00
54994;BME280;40891;47.242;8.648;2023-07-13T05:57:29;96506.38;;;18.14;100.00
54994;BME280;40891;47.242;8.648;2023-07-13T05:59:55;96507.09;;;18.09;100.00
54994;BME280;40891;47.242;8.648;2023-07-13T06:02:20;96505.53;;;18.39;100.00
54994;BME280;40891;47.242;8.648;2023-07-13T06:04:45;96512.31;;;18.21;100.00
54994;BME280;40891;47.242;8.648;2023-07-13T06:07:11;96520.97;;;18.12;100.00
54994;BME280;40891;47.242;8.648;2023-07-13T06:09:36;96521.09;;;17.98;100.00
54994;BME280;40891;47.242;8.648;2023-07-13T06:12:01;96528.97;;;17.94;100.00
54994;BME280;40891;47.242;8.648;2023-07-13T06:14:27;96539.94;;;17.92;100.00
54994;BME280;40891;47.242;8.648;2023-07-13T06:16:52;96532.34;;;17.98;100.00
54994;BME280;40891;47.242;8.648;2023-07-13T06:19:17;96543.47;;;17.87;100.00
54994;BME280;40891;47.242;8.648;2023-07-13T06:21:43;96540.78;;;17.98;100.00
54994;BME280;40891;47.242;8.648;2023-07-13T06:24:08;96538.41;;;17.91;100.00
54994;BME280;40891;47.242;8.648;2023-07-13T06:26:33;96530.25;;;17.93;100.00
54994;BME280;40891;47.242;8.648;2023-07-13T06:28:59;96530.34;;;18.04;100.00
54994;BME280;40891;47.242;8.648;2023-07-13T06:31:24;96521.84;;;17.98;100.00
54994;BME280;40891;47.242;8.648;2023-07-13T06:33:49;96523.91;;;17.98;100.00
54994;BME280;40891;47.242;8.648;2023-07-13T06:36:15;96524.03;;;18.14;100.00
54994;BME280;40891;47.242;8.648;2023-07-13T06:38:40;96534.00;;;18.15;100.00
54994;BME280;40891;47.242;8.648;2023-07-13T06:41:07;96536.22;;;18.06;100.00
54994;BME280;40891;47.242;8.648;2023-07-13T06:43:32;96547.75;;;18.08;100.00
54994;BME280;40891;47.242;8.648;2023-07-13T06:45:58;96556.19;;;18.08;100.00
54994;BME280;40891;47.242;8.648;2023-07-13T06:48:24;96548.59;;;18.14;100.00
